Time;durP1;ratioP1;P1;durP2;ratioP2;P2;SDS_P1;SDS_P2;PMS_P1;PMS_P2;Temp;Humidity;BMP_temperature;BMP_pressure;BME280_temperature;BME280_humidity;BME280_pressure;Samples;Min_cycle;Max_cycle;Signal;HPM_P1;HPM_P2
2022/11/02 00:01:39;;;;;;;12.80;10.63;;;15.10;99.90;;;;;;6220602;28;20814;-63
2022/11/02 00:04:42;;;;;;;11.20;10.00;;;15.10;99.90;;;;;;6226435;28;20478;-63
2022/11/02 00:07:45;;;;;;;13.00;11.70;;;15.00;99.90;;;;;;6226305;28;20530;-64
2022/11/02 00:10:50;;;;;;;12.10;11.00;;;15.00;99.90;;;;;;6221316;28;20472;-63
2022/11/02 00:13:53;;;;;;;12.27;11.00;;;15.00;99.90;;;;;;6226036;28;20969;-63
2022/11/02 00:16:56;;;;;;;11.97;10.77;;;15.00;99.90;;;;;;6225964;28;20506;-64
2022/11/02 00:19:59;;;;;;;13.10;11.40;;;15.00;99.90;;;;;;6225917;28;20479;-63
2022/11/02 00:23:05;;;;;;;13.10;11.80;;;15.10;99.90;;;;;;6225486;28;20472;-63
2022/11/02 00:26:10;;;;;;;13.80;11.50;;;15.10;99.90;;;;;;6225631;28;20475;-62
2022/11/02 00:29:13;;;;;;;11.10;10.17;;;15.00;99.90;;;;;;6225440;28;20546;-62
2022/11/02 00:32:16;;;;;;;13.23;11.17;;;15.10;99.90;;;;;;6225362;28;20479;-60
2022/11/02 00:35:19;;;;;;;13.07;11.77;;;15.10;99.90;;;;;;6225445;28;20487;-60
2022/11/02 00:38:23;;;;;;;11.97;10.80;;;15.10;99.90;;;;;;6225014;28;20480;-60
2022/11/02 00:41:27;;;;;;;13.17;11.80;;;15.20;99.90;;;;;;6225166;28;20475;-60
2022/11/02 00:44:30;;;;;;;11.97;10.93;;;15.20;99.90;;;;;;6225135;28;20483;-62
2022/11/02 00:47:34;;;;;;;11.53;10.43;;;15.20;99.90;;;;;;6224986;28;20502;-63
2022/11/02 00:50:37;;;;;;;13.00;11.70;;;15.20;99.90;;;;;;6225367;28;20484;-59
2022/11/02 00:53:40;;;;;;;15.03;11.47;;;15.20;99.90;;;;;;6224936;28;20488;-59
2022/11/02 00:56:44;;;;;;;11.57;10.37;;;15.20;99.90;;;;;;6225732;28;20513;-60
2022/11/02 00:59:48;;;;;;;12.60;11.30;;;15.20;99.90;;;;;;6226278;28;20475;-60
2022/11/02 01:02:51;;;;;;;12.70;11.10;;;15.20;99.90;;;;;;6225301;28;20538;-60
2022/11/02 01:05:54;;;;;;;12.00;10.90;;;15.20;99.90;;;;;;6224988;28;20482;-59
2022/11/02 01:08:57;;;;;;;12.37;11.17;;;15.20;99.90;;;;;;6225256;28;20443;-59
2022/11/02 01:12:02;;;;;;;11.30;10.10;;;15.20;99.90;;;;;;6220508;28;20918;-59
2022/11/02 01:15:06;;;;;;;14.57;10.60;;;15.20;99.90;;;;;;6225173;28;20557;-59
2022/11/02 01:18:10;;;;;;;12.10;10.80;;;15.20;99.90;;;;;;6224217;28;20460;-59
2022/11/02 01:21:13;;;;;;;11.23;10.17;;;15.20;99.90;;;;;;6224581;28;20542;-59
2022/11/02 01:24:16;;;;;;;11.57;10.50;;;15.10;99.90;;;;;;6224612;28;20482;-59
2022/11/02 01:27:20;;;;;;;10.77;9.67;;;15.20;99.90;;;;;;6225349;28;20537;-59
2022/11/02 01:30:23;;;;;;;11.27;10.17;;;15.10;99.90;;;;;;6224883;28;20961;-59
2022/11/02 01:33:27;;;;;;;9.70;8.70;;;15.10;99.90;;;;;;6224494;28;20479;-59
2022/11/02 01:36:30;;;;;;;10.50;9.70;;;15.10;99.90;;;;;;6224582;28;20491;-59
2022/11/02 01:39:33;;;;;;;10.73;9.63;;;15.10;99.90;;;;;;6224362;28;20541;-59
2022/11/02 01:42:38;;;;;;;12.07;9.73;;;15.10;99.90;;;;;;6225012;28;20476;-59
2022/11/02 01:45:41;;;;;;;11.40;10.20;;;15.10;99.90;;;;;;6220752;28;20484;-59
2022/11/02 01:48:48;;;;;;;10.97;10.07;;;15.10;99.90;;;;;;6200261;28;20954;-59
2022/11/02 01:51:56;;;;;;;12.97;11.20;;;15.00;99.90;;;;;;6199341;28;20488;-63
2022/11/02 01:55:04;;;;;;;11.40;10.40;;;14.90;99.90;;;;;;6198447;28;20469;-63
2022/11/02 01:58:12;;;;;;;15.00;10.40;;;14.90;99.90;;;;;;6198594;28;20487;-63
2022/11/02 02:01:15;;;;;;;10.83;9.83;;;14.90;99.90;;;;;;6198642;28;20487;-63
2022/11/02 02:04:19;;;;;;;10.23;9.17;;;15.00;99.90;;;;;;6198515;28;20477;-63
2022/11/02 02:07:25;;;;;;;9.97;9.10;;;15.00;99.90;;;;;;6198997;28;20784;-63
2022/11/02 02:10:28;;;;;;;9.83;8.90;;;15.00;99.90;;;;;;6200115;28;21013;-64
2022/11/02 02:13:33;;;;;;;10.50;9.40;;;15.00;99.90;;;;;;6200052;28;20468;-63
2022/11/02 02:16:50;;;;;;;9.67;8.77;;;15.00;99.90;;;;;;6191007;28;20488;-63
2022/11/02 02:20:00;;;;;;;12.60;11.40;;;15.00;99.90;;;;;;6200122;28;20477;-63
2022/11/02 02:23:31;;;;;;;9.43;8.53;;;15.00;99.90;;;;;;6204203;28;20539;-63
2022/11/02 02:26:51;;;;;;;11.30;9.20;;;15.00;99.90;;;;;;6204463;28;20848;-62
2022/11/02 02:30:06;;;;;;;10.10;9.23;;;15.00;99.90;;;;;;6204836;28;20442;-62
2022/11/02 02:33:13;;;;;;;10.43;9.50;;;15.00;99.90;;;;;;6204956;28;20461;-62
2022/11/02 02:36:24;;;;;;;10.10;9.20;;;14.90;99.90;;;;;;6204301;28;20465;-62
2022/11/02 02:39:34;;;;;;;10.73;9.63;;;14.80;99.90;;;;;;6204556;28;20488;-62
2022/11/02 02:42:43;;;;;;;11.20;10.10;;;14.70;99.90;;;;;;6204265;28;21005;-63
2022/11/02 02:45:55;;;;;;;11.33;10.20;;;14.70;99.90;;;;;;6205295;28;20477;-62
2022/11/02 02:48:59;;;;;;;10.57;9.40;;;14.70;99.90;;;;;;6204538;28;20494;-62
2022/11/02 02:52:03;;;;;;;8.80;8.00;;;14.70;99.90;;;;;;6203629;28;20473;-62
2022/11/02 02:55:10;;;;;;;10.10;9.00;;;14.70;99.90;;;;;;6203736;28;20480;-63
2022/11/02 02:58:18;;;;;;;10.00;9.13;;;14.60;99.90;;;;;;6204038;28;20488;-63
2022/11/02 03:01:23;;;;;;;11.03;9.17;;;14.60;99.90;;;;;;6203690;28;20531;-63
2022/11/02 03:04:27;;;;;;;10.20;9.23;;;14.70;99.90;;;;;;6203668;28;20562;-63
2022/11/02 03:07:33;;;;;;;10.93;8.87;;;14.80;99.90;;;;;;6203117;28;20484;-63
2022/11/02 03:10:42;;;;;;;10.20;9.10;;;14.80;99.90;;;;;;6203546;28;20472;-63
2022/11/02 03:14:00;;;;;;;10.30;8.77;;;14.90;99.90;;;;;;6203456;28;20488;-62
2022/11/02 03:17:14;;;;;;;10.73;9.27;;;14.80;99.90;;;;;;6203304;28;20528;-62
2022/11/02 03:20:24;;;;;;;9.83;8.80;;;14.80;99.90;;;;;;6194640;28;20567;-62
2022/11/02 03:23:32;;;;;;;10.83;8.57;;;14.80;99.90;;;;;;6202813;28;20488;-59
2022/11/02 03:26:43;;;;;;;8.60;7.83;;;14.80;99.90;;;;;;6203458;28;20975;-59
2022/11/02 03:29:56;;;;;;;8.90;8.00;;;14.80;99.90;;;;;;6202502;28;20473;-59
2022/11/02 03:33:07;;;;;;;8.90;8.10;;;14.80;99.90;;;;;;6201584;28;20457;-59
2022/11/02 03:36:14;;;;;;;9.50;8.63;;;14.80;99.90;;;;;;6202260;28;20568;-58
2022/11/02 03:39:22;;;;;;;9.63;8.73;;;14.80;99.90;;;;;;6202277;28;20851;-58
2022/11/02 03:42:30;;;;;;;9.93;8.17;;;14.80;99.90;;;;;;6202500;28;20480;-58
2022/11/02 03:45:39;;;;;;;10.00;9.10;;;14.80;99.90;;;;;;6202691;28;20559;-62
2022/11/02 03:48:47;;;;;;;9.90;9.00;;;14.80;99.90;;;;;;6202631;28;20476;-58
2022/11/02 03:51:52;;;;;;;9.80;8.90;;;14.80;99.90;;;;;;6201714;28;20501;-58
2022/11/02 03:55:03;;;;;;;8.93;8.03;;;14.70;99.90;;;;;;6201809;28;20582;-58
2022/11/02 03:58:10;;;;;;;11.43;9.90;;;14.60;99.90;;;;;;6201997;28;20818;-60
2022/11/02 04:01:16;;;;;;;9.47;8.57;;;14.60;99.90;;;;;;6202124;28;20477;-60
2022/11/02 04:04:21;;;;;;;16.17;13.57;;;14.60;99.90;;;;;;6202315;28;20484;-60
2022/11/02 04:08:19;;;;;;;9.90;9.00;;;14.60;99.90;;;;;;6201823;28;20808;-60
2022/11/02 04:20:59;;;;;;;9.23;8.43;;;14.50;99.90;;;;;;6197763;28;20507;-62
2022/11/02 04:27:23;;;;;;;14.70;12.10;;;14.50;99.90;;;;;;6201821;28;20949;-59
2022/11/02 04:30:26;;;;;;;12.17;11.03;;;14.30;99.90;;;;;;6202166;28;20992;-59
2022/11/02 04:33:32;;;;;;;11.43;10.33;;;14.30;99.90;;;;;;6203283;28;21008;-60
2022/11/02 04:36:37;;;;;;;13.67;9.83;;;14.40;99.90;;;;;;6201023;28;20854;-63
2022/11/02 04:39:39;;;;;;;11.87;9.87;;;14.40;99.90;;;;;;6202071;28;20511;-60
2022/11/02 04:42:46;;;;;;;11.77;10.60;;;14.30;99.90;;;;;;6202648;28;20950;-59
2022/11/02 04:45:49;;;;;;;11.50;10.33;;;14.30;99.90;;;;;;6201232;28;20488;-60
2022/11/02 04:48:52;;;;;;;12.00;10.90;;;14.30;99.90;;;;;;6200812;28;20543;-60
2022/11/02 04:51:57;;;;;;;11.13;10.13;;;14.30;99.90;;;;;;6200777;28;20500;-59
2022/11/02 04:55:00;;;;;;;11.73;10.40;;;14.30;99.90;;;;;;6201236;28;20484;-59
2022/11/02 04:58:03;;;;;;;10.97;9.97;;;14.30;99.90;;;;;;6200682;28;20491;-60
2022/11/02 05:01:07;;;;;;;10.63;9.50;;;14.30;99.90;;;;;;6201209;28;20480;-59
2022/11/02 05:04:10;;;;;;;10.60;9.60;;;14.20;99.90;;;;;;6200841;28;20473;-63
2022/11/02 05:07:15;;;;;;;11.10;9.97;;;14.30;99.90;;;;;;6200684;28;20488;-62
2022/11/02 05:10:18;;;;;;;10.60;9.60;;;14.30;99.90;;;;;;6200666;28;20476;-59
2022/11/02 05:13:21;;;;;;;11.97;10.77;;;14.30;99.90;;;;;;6200859;28;20480;-59
2022/11/02 05:16:24;;;;;;;12.00;10.90;;;14.30;99.90;;;;;;6199950;28;20492;-62
2022/11/02 05:19:27;;;;;;;11.30;10.30;;;14.20;99.90;;;;;;6200433;28;20962;-62
2022/11/02 05:22:32;;;;;;;13.33;12.03;;;14.20;99.90;;;;;;6200414;28;20495;-62
2022/11/02 05:25:35;;;;;;;11.63;10.37;;;14.20;99.90;;;;;;6196929;28;20481;-63
2022/11/02 05:28:38;;;;;;;11.23;10.17;;;14.20;99.90;;;;;;6200499;28;20480;-60
2022/11/02 05:31:42;;;;;;;11.60;10.43;;;14.20;99.90;;;;;;6200344;28;20491;-60
2022/11/02 05:34:45;;;;;;;10.50;9.50;;;14.20;99.90;;;;;;6200596;28;20469;-60
2022/11/02 05:37:49;;;;;;;13.00;10.67;;;14.20;99.90;;;;;;6199936;28;20471;-63
2022/11/02 05:40:52;;;;;;;14.23;9.80;;;14.10;99.90;;;;;;6207675;28;20570;-63
2022/11/02 05:43:56;;;;;;;11.10;9.93;;;14.10;99.90;;;;;;6215747;28;20504;-59
2022/11/02 05:46:59;;;;;;;10.87;9.73;;;14.00;99.90;;;;;;6212859;28;20471;-63
2022/11/02 05:50:02;;;;;;;11.07;9.73;;;14.00;99.90;;;;;;6219945;28;20471;-60
2022/11/02 05:53:06;;;;;;;11.03;9.90;;;13.90;99.90;;;;;;6248956;28;20482;-63
2022/11/02 05:56:11;;;;;;;13.23;10.73;;;13.90;99.90;;;;;;6249970;28;20485;-60
2022/11/02 05:59:14;;;;;;;10.90;9.67;;;13.90;99.90;;;;;;6253543;28;20561;-62
2022/11/02 06:02:17;;;;;;;11.93;10.90;;;13.90;99.90;;;;;;6253083;28;20475;-62
2022/11/02 06:05:25;;;;;;;12.47;11.47;;;13.80;99.90;;;;;;6253367;28;20760;-62
2022/11/02 06:08:32;;;;;;;14.37;13.17;;;13.80;99.90;;;;;;6253096;28;21136;-59
2022/11/02 06:11:35;;;;;;;14.43;12.10;;;13.80;99.90;;;;;;6253040;28;20862;-62
2022/11/02 06:14:38;;;;;;;13.00;11.70;;;13.80;99.90;;;;;;6253343;28;20482;-62
2022/11/02 06:17:42;;;;;;;15.63;13.30;;;13.80;99.90;;;;;;6246337;28;20495;-62
2022/11/02 06:20:45;;;;;;;12.80;11.67;;;13.80;99.90;;;;;;6217027;28;20498;-62
2022/11/02 06:23:50;;;;;;;13.80;12.43;;;13.80;99.90;;;;;;6226315;28;20475;-62
2022/11/02 06:26:54;;;;;;;12.40;11.07;;;13.80;99.90;;;;;;6228451;28;20456;-62
2022/11/02 06:29:57;;;;;;;11.83;10.83;;;13.80;99.90;;;;;;6230005;28;20444;-63
2022/11/02 06:33:00;;;;;;;12.63;11.37;;;13.90;99.90;;;;;;6229381;28;20754;-62
2022/11/02 06:36:09;;;;;;;12.17;11.17;;;13.80;99.90;;;;;;6227534;28;21001;-61
2022/11/02 06:39:14;;;;;;;11.90;10.80;;;13.90;99.90;;;;;;6228354;28;20463;-62
2022/11/02 06:42:17;;;;;;;12.63;11.20;;;13.90;99.90;;;;;;6228399;28;20468;-61
2022/11/02 06:45:20;;;;;;;12.60;11.30;;;13.70;99.90;;;;;;6228369;28;20964;-59
2022/11/02 06:48:24;;;;;;;12.97;11.77;;;13.70;99.90;;;;;;6228405;28;20476;-59
2022/11/02 06:51:33;;;;;;;12.93;10.17;;;13.70;99.90;;;;;;6228246;28;20468;-63
2022/11/02 06:54:38;;;;;;;11.20;10.20;;;13.80;99.90;;;;;;6230756;28;20545;-62
2022/11/02 06:57:43;;;;;;;10.97;9.97;;;13.90;99.90;;;;;;6230374;28;20488;-62
2022/11/02 07:00:46;;;;;;;9.77;8.50;;;14.00;99.90;;;;;;6229992;28;20476;-63
2022/11/02 07:03:49;;;;;;;11.13;9.43;;;14.10;99.90;;;;;;6228437;28;20512;-61
2022/11/02 07:06:53;;;;;;;10.40;8.60;;;14.30;99.90;;;;;;6227771;28;20573;-59
2022/11/02 07:09:57;;;;;;;9.57;8.63;;;14.50;99.90;;;;;;6227895;28;20476;-62
2022/11/02 07:13:00;;;;;;;10.30;9.27;;;14.60;99.90;;;;;;6227950;28;20476;-62
2022/11/02 07:16:04;;;;;;;11.93;8.97;;;14.70;99.90;;;;;;6227148;28;20484;-59
2022/11/02 07:19:07;;;;;;;11.43;10.53;;;14.70;99.90;;;;;;6227320;28;20483;-60
2022/11/02 07:22:10;;;;;;;16.90;12.43;;;14.80;99.90;;;;;;6227427;28;20992;-63
2022/11/02 07:25:15;;;;;;;14.27;12.37;;;14.80;99.90;;;;;;6227367;28;20467;-63
2022/11/02 07:28:18;;;;;;;12.60;11.37;;;14.80;99.90;;;;;;6227478;28;20483;-61
2022/11/02 07:31:22;;;;;;;11.97;10.87;;;14.80;99.90;;;;;;6227038;28;20503;-63
2022/11/02 07:34:25;;;;;;;15.00;12.07;;;14.90;99.90;;;;;;6218120;28;20475;-61
2022/11/02 07:37:28;;;;;;;15.10;12.30;;;14.90;99.90;;;;;;6226830;28;20472;-62
2022/11/02 07:40:34;;;;;;;15.10;13.13;;;15.00;99.90;;;;;;6227387;28;20482;-60
2022/11/02 07:43:37;;;;;;;13.67;12.37;;;15.00;99.90;;;;;;6206737;28;20995;-59
2022/11/02 07:46:46;;;;;;;12.53;11.17;;;15.00;99.90;;;;;;6202782;28;20598;-59
2022/11/02 07:49:49;;;;;;;12.97;11.53;;;15.10;99.90;;;;;;6203008;28;20977;-60
2022/11/02 07:52:53;;;;;;;14.63;12.43;;;15.20;99.90;;;;;;6203264;28;20489;-63
2022/11/02 07:56:00;;;;;;;11.53;10.43;;;15.30;99.90;;;;;;6202510;28;20982;-59
2022/11/02 07:59:03;;;;;;;12.07;10.83;;;15.50;99.90;;;;;;6202839;28;20461;-60
2022/11/02 08:02:06;;;;;;;12.43;9.80;;;15.40;99.90;;;;;;6210722;28;20473;-61
2022/11/02 08:05:09;;;;;;;13.30;12.00;;;15.50;99.90;;;;;;6217569;28;20857;-60
2022/11/02 08:08:14;;;;;;;10.97;9.87;;;15.60;99.90;;;;;;6214015;28;20500;-59
2022/11/02 08:11:19;;;;;;;11.30;8.93;;;15.70;99.90;;;;;;6213197;28;20468;-63
2022/11/02 08:14:22;;;;;;;9.50;7.10;;;15.90;99.90;;;;;;6216953;28;20494;-63
2022/11/02 08:17:25;;;;;;;10.97;7.50;;;16.00;99.90;;;;;;6210903;28;20773;-63
2022/11/02 08:20:29;;;;;;;9.43;7.97;;;16.10;99.90;;;;;;6208905;28;20501;-60
2022/11/02 08:23:32;;;;;;;10.47;8.40;;;16.30;99.90;;;;;;6213614;28;20502;-61
2022/11/02 08:26:37;;;;;;;12.30;8.73;;;16.30;99.90;;;;;;6216300;28;20502;-60
2022/11/02 08:29:46;;;;;;;13.60;10.20;;;16.40;99.90;;;;;;6221590;28;20471;-65
2022/11/02 08:32:49;;;;;;;16.70;12.30;;;16.50;99.90;;;;;;6220177;28;20480;-63
2022/11/02 08:36:03;;;;;;;12.10;11.10;;;16.60;99.90;;;;;;6217074;28;20456;-61
2022/11/02 08:39:07;;;;;;;15.03;13.57;;;16.70;99.90;;;;;;6212614;28;20421;-64
2022/11/02 08:42:11;;;;;;;12.50;11.17;;;16.80;99.90;;;;;;6215854;28;20567;-62
2022/11/02 08:45:16;;;;;;;17.83;12.77;;;16.90;99.90;;;;;;6209245;28;20468;-61
2022/11/02 08:48:19;;;;;;;14.63;12.27;;;17.00;99.90;;;;;;6204587;28;21015;-61
2022/11/02 08:51:22;;;;;;;13.70;11.97;;;17.30;99.90;;;;;;6205039;28;20468;-60
2022/11/02 08:54:25;;;;;;;12.90;11.60;;;17.50;99.90;;;;;;6201302;28;20942;-61
2022/11/02 08:57:30;;;;;;;13.33;11.57;;;17.80;99.90;;;;;;6201211;28;20534;-63
2022/11/02 09:00:34;;;;;;;14.03;11.50;;;18.10;99.90;;;;;;6201222;28;20531;-62
2022/11/02 09:03:37;;;;;;;11.80;10.53;;;18.80;99.90;;;;;;6200976;28;20248;-64
2022/11/02 09:06:41;;;;;;;12.60;11.30;;;20.60;99.90;;;;;;6212040;28;20239;-62
2022/11/02 09:09:44;;;;;;;14.03;11.90;;;21.30;99.90;;;;;;6200490;28;20233;-65
2022/11/02 09:12:48;;;;;;;13.00;11.50;;;21.20;99.90;;;;;;6201125;28;20229;-64
2022/11/02 09:15:53;;;;;;;14.20;11.57;;;21.40;99.90;;;;;;6200762;28;20237;-65
2022/11/02 09:18:56;;;;;;;12.77;10.77;;;21.50;99.80;;;;;;6200656;28;20248;-65
2022/11/02 09:21:59;;;;;;;14.70;11.43;;;22.70;99.50;;;;;;6202234;28;20233;-66
2022/11/02 09:25:08;;;;;;;12.83;11.13;;;26.30;94.50;;;;;;6202742;28;20256;-67
2022/11/02 09:28:14;;;;;;;17.07;12.23;;;30.60;75.40;;;;;;6200630;28;20290;-66
2022/11/02 09:31:17;;;;;;;13.50;11.20;;;31.80;59.00;;;;;;6202863;28;20944;-66
2022/11/02 09:34:20;;;;;;;12.90;11.77;;;30.70;56.40;;;;;;6218917;28;20240;-64
2022/11/02 09:37:23;;;;;;;12.67;10.27;;;29.20;57.60;;;;;;6204873;28;20687;-64
2022/11/02 09:40:29;;;;;;;12.33;11.17;;;27.70;59.40;;;;;;6212016;28;20278;-65
2022/11/02 09:43:51;;;;;;;12.10;9.80;;;26.40;64.00;;;;;;6231571;28;20236;-66
2022/11/02 09:46:56;;;;;;;12.63;11.33;;;25.20;68.30;;;;;;6251614;28;20236;-66
2022/11/02 09:50:23;;;;;;;12.00;10.80;;;24.20;72.10;;;;;;6254021;28;20252;-65
2022/11/02 09:53:35;;;;;;;12.13;10.87;;;23.30;76.40;;;;;;6251530;28;20311;-64
2022/11/02 09:56:39;;;;;;;13.20;10.60;;;22.70;80.90;;;;;;6220448;28;20229;-64
2022/11/02 09:59:43;;;;;;;15.00;9.57;;;22.40;83.90;;;;;;6223473;28;20671;-64
2022/11/02 10:02:59;;;;;;;14.60;12.37;;;22.00;86.90;;;;;;6212415;28;20229;-64
2022/11/02 10:06:08;;;;;;;11.83;10.77;;;22.10;87.80;;;;;;6229358;28;20352;-65
2022/11/02 10:09:18;;;;;;;16.13;12.33;;;22.40;88.50;;;;;;6204784;28;20545;-62
2022/11/02 10:12:28;;;;;;;14.17;9.70;;;22.90;86.80;;;;;;6213813;28;20229;-66
2022/11/02 10:15:39;;;;;;;10.63;9.57;;;23.40;86.20;;;;;;6228888;28;20294;-66
2022/11/02 10:18:48;;;;;;;12.90;10.50;;;24.00;83.80;;;;;;6229524;28;20233;-67
2022/11/02 10:21:58;;;;;;;12.63;9.33;;;25.60;81.40;;;;;;6229928;28;20243;-68
2022/11/02 10:25:05;;;;;;;10.10;8.93;;;30.70;66.40;;;;;;6229341;28;20549;-68
2022/11/02 10:28:14;;;;;;;11.40;10.30;;;33.00;52.30;;;;;;6228926;28;20236;-68
2022/11/02 10:31:32;;;;;;;10.57;9.10;;;32.90;49.60;;;;;;6229154;28;20228;-68
2022/11/02 10:34:35;;;;;;;10.27;9.27;;;33.60;47.90;;;;;;6228314;28;20229;-65
2022/11/02 10:37:50;;;;;;;12.75;8.68;;;36.10;43.10;;;;;;6228116;28;20243;-68
2022/11/02 10:41:09;;;;;;;10.48;7.57;;;35.80;40.20;;;;;;6227807;28;20314;-67
2022/11/02 10:44:23;;;;;;;10.02;6.93;;;34.40;39.70;;;;;;6224067;28;20258;-66
2022/11/02 10:47:32;;;;;;;10.73;7.90;;;32.60;42.00;;;;;;6228619;28;20240;-62
2022/11/02 10:50:46;;;;;;;9.02;8.13;;;32.40;42.50;;;;;;6228343;28;20298;-62
2022/11/02 10:53:51;;;;;;;8.25;7.55;;;31.00;45.20;;;;;;6227071;28;20237;-62
2022/11/02 10:56:56;;;;;;;9.50;8.65;;;30.70;45.90;;;;;;6228224;28;20243;-65
2022/11/02 11:00:22;;;;;;;10.93;8.00;;;29.80;47.10;;;;;;6227551;28;20232;-64
2022/11/02 11:03:27;;;;;;;10.90;8.10;;;30.00;48.10;;;;;;6227845;28;20232;-63
2022/11/02 11:06:34;;;;;;;7.70;6.87;;;30.00;46.90;;;;;;6222550;28;20280;-61
2022/11/02 11:09:45;;;;;;;8.37;7.50;;;29.80;47.40;;;;;;6203569;28;20240;-67
2022/11/02 11:12:49;;;;;;;8.37;7.23;;;29.50;47.50;;;;;;6203739;28;20364;-67
2022/11/02 11:15:52;;;;;;;9.87;7.60;;;29.10;48.60;;;;;;6202257;28;20240;-65
2022/11/02 11:18:57;;;;;;;10.60;7.63;;;28.80;49.30;;;;;;6203096;28;20257;-66
2022/11/02 11:22:28;;;;;;;8.00;7.20;;;28.40;50.80;;;;;;6203025;28;20303;-64
2022/11/02 11:25:31;;;;;;;8.90;8.10;;;27.90;52.20;;;;;;6203095;28;20248;-63
2022/11/02 11:28:39;;;;;;;12.33;8.10;;;26.90;53.90;;;;;;6202233;28;20709;-64
2022/11/02 11:31:43;;;;;;;9.37;6.87;;;25.80;56.80;;;;;;6225273;28;20232;-65
2022/11/02 11:34:55;;;;;;;8.50;6.90;;;25.70;57.80;;;;;;6215889;28;20697;-67
2022/11/02 11:38:01;;;;;;;9.10;8.17;;;26.00;57.10;;;;;;6209170;28;20306;-66
2022/11/02 11:41:05;;;;;;;6.33;5.53;;;25.80;58.40;;;;;;6227459;28;20239;-63
2022/11/02 11:44:13;;;;;;;12.40;6.63;;;25.80;57.20;;;;;;6227360;28;20286;-64
2022/11/02 11:47:16;;;;;;;6.70;5.77;;;25.70;57.50;;;;;;6208343;28;20225;-61
2022/11/02 11:50:22;;;;;;;9.30;5.73;;;25.50;58.30;;;;;;6215608;28;20243;-65
2022/11/02 11:53:27;;;;;;;11.57;5.60;;;25.20;58.10;;;;;;6222789;28;20233;-65
2022/11/02 11:56:31;;;;;;;9.70;5.33;;;24.40;59.20;;;;;;6202167;28;20233;-63
2022/11/02 11:59:47;;;;;;;8.17;5.60;;;23.70;60.60;;;;;;6209396;28;20228;-63
2022/11/02 12:03:02;;;;;;;7.87;5.50;;;23.20;62.40;;;;;;6212936;28;20584;-62
2022/11/02 12:06:18;;;;;;;6.60;4.63;;;23.00;64.50;;;;;;6219625;28;20222;-62
2022/11/02 12:09:29;;;;;;;8.10;5.17;;;22.90;65.30;;;;;;6223018;28;20441;-64
2022/11/02 12:12:44;;;;;;;7.23;5.40;;;22.80;65.90;;;;;;6226229;28;20233;-63
2022/11/02 12:16:04;;;;;;;8.20;5.13;;;22.50;67.50;;;;;;6226835;28;20232;-63
2022/11/02 12:19:20;;;;;;;5.70;4.70;;;22.40;67.50;;;;;;6226478;28;20324;-62
2022/11/02 12:22:34;;;;;;;10.10;5.87;;;22.70;67.30;;;;;;6226050;28;20241;-62
2022/11/02 12:25:50;;;;;;;12.23;5.10;;;22.70;68.50;;;;;;6226217;28;20233;-63
2022/11/02 12:29:07;;;;;;;7.83;4.70;;;22.70;69.20;;;;;;6226416;28;20303;-63
2022/11/02 12:32:24;;;;;;;11.07;5.63;;;22.90;68.70;;;;;;6226439;28;20570;-64
2022/11/02 12:36:01;;;;;;;11.83;5.43;;;22.90;68.90;;;;;;6225992;28;20229;-63
2022/11/02 12:39:08;;;;;;;9.57;4.83;;;23.30;68.50;;;;;;6226795;28;20528;-62
2022/11/02 12:42:23;;;;;;;6.10;5.17;;;24.20;67.90;;;;;;6225614;28;20567;-64
2022/11/02 12:45:36;;;;;;;5.63;4.80;;;26.00;61.60;;;;;;6226642;28;20237;-64
2022/11/02 12:48:45;;;;;;;13.97;5.10;;;27.40;56.60;;;;;;6221590;28;20240;-63
2022/11/02 12:51:55;;;;;;;6.47;4.87;;;28.50;53.50;;;;;;6225437;28;20240;-64
2022/11/02 12:55:03;;;;;;;6.23;4.57;;;30.10;50.40;;;;;;6225396;28;20236;-66
2022/11/02 12:58:16;;;;;;;6.05;4.50;;;31.00;47.80;;;;;;6225442;28;20662;-66
2022/11/02 13:01:26;;;;;;;6.22;4.18;;;32.30;45.30;;;;;;6225212;28;20734;-65
2022/11/02 13:04:32;;;;;;;7.20;4.70;;;32.90;43.70;;;;;;6225164;28;20229;-65
2022/11/02 13:07:47;;;;;;;6.07;4.72;;;33.00;43.20;;;;;;6225516;28;20281;-65
2022/11/02 13:10:57;;;;;;;9.85;5.22;;;32.40;43.30;;;;;;6225438;28;20231;-66
2022/11/02 13:14:04;;;;;;;5.70;4.97;;;31.30;44.70;;;;;;6225511;28;20224;-66
2022/11/02 13:17:14;;;;;;;10.37;5.40;;;30.00;46.30;;;;;;6225304;28;20270;-67
2022/11/02 13:20:21;;;;;;;5.93;4.43;;;28.60;48.30;;;;;;6224744;28;20224;-65
2022/11/02 13:23:34;;;;;;;6.60;4.47;;;27.20;51.20;;;;;;6225172;28;20555;-65
2022/11/02 13:26:42;;;;;;;7.80;5.47;;;26.40;53.50;;;;;;6225466;28;20251;-66
2022/11/02 13:29:49;;;;;;;6.90;4.97;;;25.30;56.00;;;;;;6225230;28;20228;-64
2022/11/02 13:32:59;;;;;;;8.63;5.40;;;24.70;57.40;;;;;;6225055;28;20710;-64
2022/11/02 13:36:04;;;;;;;5.23;4.83;;;24.20;58.50;;;;;;6225161;28;20302;-65
2022/11/02 13:39:14;;;;;;;7.83;4.60;;;24.00;59.30;;;;;;6225806;28;20229;-65
2022/11/02 13:42:39;;;;;;;5.43;4.83;;;23.80;60.20;;;;;;6218526;28;20570;-65
2022/11/02 13:46:05;;;;;;;7.10;4.63;;;23.70;61.00;;;;;;6225050;28;20237;-64
2022/11/02 13:49:15;;;;;;;10.17;5.50;;;23.60;61.70;;;;;;6224955;28;20236;-64
2022/11/02 13:52:24;;;;;;;4.67;3.90;;;23.10;63.10;;;;;;6220713;28;20239;-65
2022/11/02 13:55:45;;;;;;;6.50;4.47;;;22.90;64.60;;;;;;6213527;28;20233;-63
2022/11/02 13:58:56;;;;;;;7.30;4.70;;;22.70;65.10;;;;;;6213521;28;20229;-63
2022/11/02 14:02:02;;;;;;;6.40;4.40;;;22.40;65.90;;;;;;6213179;28;20228;-63
2022/11/02 14:05:07;;;;;;;7.53;4.93;;;22.30;67.00;;;;;;6205867;28;20230;-63
2022/11/02 14:08:17;;;;;;;7.60;4.53;;;22.20;67.80;;;;;;6220417;28;20233;-64
2022/11/02 14:11:27;;;;;;;7.87;4.40;;;22.10;68.40;;;;;;6224442;28;20244;-64
2022/11/02 14:14:32;;;;;;;5.53;4.77;;;22.00;69.10;;;;;;6224377;28;20244;-63
2022/11/02 14:18:00;;;;;;;9.40;5.37;;;21.80;69.80;;;;;;6215459;28;20248;-64
2022/11/02 14:21:37;;;;;;;5.93;4.57;;;21.50;70.80;;;;;;6207181;28;20234;-64
2022/11/02 14:25:15;;;;;;;6.30;5.47;;;21.10;72.90;;;;;;6224737;28;20240;-63
2022/11/02 14:28:31;;;;;;;5.27;4.77;;;20.90;74.10;;;;;;6228834;28;20264;-60
2022/11/02 14:31:56;;;;;;;5.07;4.27;;;20.80;75.10;;;;;;6216139;28;20595;-61
2022/11/02 14:35:14;;;;;;;9.73;4.10;;;20.70;75.80;;;;;;6204502;28;20267;-61
2022/11/02 14:38:40;;;;;;;7.63;4.50;;;20.60;76.80;;;;;;6203091;28;20248;-62
2022/11/02 14:41:55;;;;;;;8.63;4.57;;;20.40;77.60;;;;;;6202714;28;20236;-61
2022/11/02 14:45:13;;;;;;;5.30;4.10;;;20.30;78.20;;;;;;6203364;28;20222;-62
2022/11/02 14:48:18;;;;;;;4.83;4.30;;;20.00;79.00;;;;;;6203617;28;20230;-61
2022/11/02 14:51:25;;;;;;;8.70;4.50;;;20.10;80.00;;;;;;6246671;28;20239;-61
2022/11/02 14:54:30;;;;;;;8.17;5.13;;;19.90;80.50;;;;;;6253229;28;20681;-61
2022/11/02 14:57:37;;;;;;;7.30;4.03;;;19.80;80.90;;;;;;6254251;28;20235;-63
2022/11/02 15:00:57;;;;;;;10.00;4.50;;;19.80;81.90;;;;;;6235789;28;20237;-62
2022/11/02 15:04:07;;;;;;;5.93;4.37;;;19.80;82.50;;;;;;6215551;28;20717;-60
2022/11/02 15:07:20;;;;;;;7.40;4.67;;;19.70;83.30;;;;;;6228358;28;20248;-61
2022/11/02 15:10:40;;;;;;;5.47;4.17;;;19.70;83.90;;;;;;6227638;28;20236;-60
2022/11/02 15:13:47;;;;;;;15.07;4.50;;;19.60;84.70;;;;;;6228063;28;20236;-60
2022/11/02 15:16:51;;;;;;;7.13;4.13;;;19.60;84.80;;;;;;6229077;28;20237;-60
2022/11/02 15:20:33;;;;;;;9.30;5.00;;;19.60;86.20;;;;;;6229491;28;20256;-61
2022/11/02 15:23:44;;;;;;;7.87;5.27;;;19.50;87.70;;;;;;6227994;28;20229;-61
2022/11/02 15:26:56;;;;;;;9.37;5.30;;;19.40;88.40;;;;;;6227521;28;20275;-61
2022/11/02 15:30:00;;;;;;;5.83;5.13;;;19.40;89.20;;;;;;6225484;28;20236;-61
2022/11/02 15:33:06;;;;;;;7.60;4.70;;;19.30;90.00;;;;;;6219700;28;20212;-62
2022/11/02 15:36:17;;;;;;;7.47;5.27;;;19.20;90.50;;;;;;6203176;28;20229;-61
2022/11/02 15:39:20;;;;;;;9.47;5.07;;;19.20;90.90;;;;;;6206702;28;20605;-61
2022/11/02 15:42:33;;;;;;;7.50;5.50;;;19.20;91.20;;;;;;6213593;28;20232;-61
2022/11/02 15:45:51;;;;;;;8.97;5.27;;;19.20;91.70;;;;;;6213563;28;20230;-61
2022/11/02 15:49:14;;;;;;;10.40;5.20;;;19.20;92.10;;;;;;6213375;28;20251;-61
2022/11/02 15:52:40;;;;;;;9.93;6.00;;;19.20;92.70;;;;;;6213541;28;20226;-61
2022/11/02 15:56:25;;;;;;;9.67;6.10;;;19.10;93.10;;;;;;6213699;28;20652;-62
2022/11/02 15:59:49;;;;;;;15.73;6.60;;;19.10;93.70;;;;;;6221564;28;20279;-62
2022/11/02 16:02:53;;;;;;;12.90;6.07;;;19.10;94.00;;;;;;6212520;28;20244;-62
2022/11/02 16:06:01;;;;;;;12.90;6.47;;;19.00;94.30;;;;;;6222233;28;20239;-62
2022/11/02 16:09:31;;;;;;;13.50;7.57;;;19.00;94.60;;;;;;6202950;28;20628;-61
2022/11/02 16:12:35;;;;;;;12.57;6.47;;;19.00;95.00;;;;;;6208846;28;20218;-61
2022/11/02 16:15:41;;;;;;;13.50;6.70;;;18.90;95.30;;;;;;6224526;28;20244;-61
2022/11/02 16:18:47;;;;;;;17.73;7.73;;;18.90;95.70;;;;;;6213868;28;20238;-61